sensor_id;sensor_type;location;lat;lon;timestamp;P1;durP1;ratioP1;P2;durP2;ratioP2
19057;SDS011;9662;53.612;9.914;2022-10-14T00:00:45;26.95;;;14.38;;
19057;SDS011;9662;53.612;9.914;2022-10-14T00:03:11;21.17;;;13.47;;
19057;SDS011;9662;53.612;9.914;2022-10-14T00:05:39;30.00;;;14.02;;
19057;SDS011;9662;53.612;9.914;2022-10-14T00:08:06;23.40;;;13.70;;
19057;SDS011;9662;53.612;9.914;2022-10-14T00:10:35;24.10;;;14.18;;
19057;SDS011;9662;53.612;9.914;2022-10-14T00:13:03;22.40;;;13.88;;
19057;SDS011;9662;53.612;9.914;2022-10-14T00:15:31;24.52;;;14.50;;
19057;SDS011;9662;53.612;9.914;2022-10-14T00:18:02;23.27;;;13.20;;
19057;SDS011;9662;53.612;9.914;2022-10-14T00:20:29;24.42;;;14.73;;
19057;SDS011;9662;53.612;9.914;2022-10-14T00:22:55;33.75;;;15.45;;
19057;SDS011;9662;53.612;9.914;2022-10-14T00:25:22;32.20;;;15.82;;
19057;SDS011;9662;53.612;9.914;2022-10-14T00:27:50;24.55;;;14.00;;
19057;SDS011;9662;53.612;9.914;2022-10-14T00:30:17;22.90;;;14.27;;
19057;SDS011;9662;53.612;9.914;2022-10-14T00:32:45;28.27;;;15.07;;
19057;SDS011;9662;53.612;9.914;2022-10-14T00:35:12;28.47;;;15.53;;
19057;SDS011;9662;53.612;9.914;2022-10-14T00:37:39;27.90;;;15.25;;
19057;SDS011;9662;53.612;9.914;2022-10-14T00:40:06;31.15;;;15.65;;
19057;SDS011;9662;53.612;9.914;2022-10-14T00:42:33;28.30;;;16.30;;
19057;SDS011;9662;53.612;9.914;2022-10-14T00:45:02;31.30;;;16.48;;
19057;SDS011;9662;53.612;9.914;2022-10-14T00:47:31;32.83;;;16.77;;
19057;SDS011;9662;53.612;9.914;2022-10-14T00:49:59;33.15;;;17.45;;
19057;SDS011;9662;53.612;9.914;2022-10-14T00:52:26;30.70;;;16.57;;
19057;SDS011;9662;53.612;9.914;2022-10-14T00:54:54;29.63;;;15.83;;
19057;SDS011;9662;53.612;9.914;2022-10-14T00:57:25;31.27;;;16.30;;
19057;SDS011;9662;53.612;9.914;2022-10-14T00:59:52;27.60;;;16.48;;
19057;SDS011;9662;53.612;9.914;2022-10-14T01:02:23;35.53;;;17.60;;
19057;SDS011;9662;53.612;9.914;2022-10-14T01:04:50;31.77;;;16.57;;
19057;SDS011;9662;53.612;9.914;2022-10-14T01:07:20;31.40;;;16.40;;
19057;SDS011;9662;53.612;9.914;2022-10-14T01:09:58;40.63;;;17.23;;
19057;SDS011;9662;53.612;9.914;2022-10-14T01:12:34;32.38;;;17.38;;
19057;SDS011;9662;53.612;9.914;2022-10-14T01:15:11;30.20;;;17.03;;
19057;SDS011;9662;53.612;9.914;2022-10-14T01:17:45;31.65;;;15.68;;
19057;SDS011;9662;53.612;9.914;2022-10-14T01:23:38;29.27;;;16.83;;
19057;SDS011;9662;53.612;9.914;2022-10-14T01:26:25;28.30;;;15.77;;
19057;SDS011;9662;53.612;9.914;2022-10-14T01:32:31;27.23;;;15.38;;
19057;SDS011;9662;53.612;9.914;2022-10-14T01:35:07;29.67;;;15.80;;
19057;SDS011;9662;53.612;9.914;2022-10-14T01:37:42;33.17;;;16.27;;
19057;SDS011;9662;53.612;9.914;2022-10-14T01:40:14;32.65;;;16.23;;
19057;SDS011;9662;53.612;9.914;2022-10-14T01:42:46;29.98;;;15.75;;
19057;SDS011;9662;53.612;9.914;2022-10-14T01:45:16;28.35;;;15.85;;
19057;SDS011;9662;53.612;9.914;2022-10-14T01:47:46;31.95;;;15.88;;
19057;SDS011;9662;53.612;9.914;2022-10-14T01:50:15;27.17;;;15.98;;
19057;SDS011;9662;53.612;9.914;2022-10-14T01:52:46;29.85;;;16.10;;
19057;SDS011;9662;53.612;9.914;2022-10-14T01:55:16;28.63;;;15.98;;
19057;SDS011;9662;53.612;9.914;2022-10-14T01:57:46;30.30;;;15.45;;
19057;SDS011;9662;53.612;9.914;2022-10-14T02:00:17;27.30;;;15.30;;
19057;SDS011;9662;53.612;9.914;2022-10-14T02:02:44;29.27;;;15.27;;
19057;SDS011;9662;53.612;9.914;2022-10-14T02:05:13;31.20;;;16.52;;
19057;SDS011;9662;53.612;9.914;2022-10-14T02:07:44;32.15;;;15.70;;
19057;SDS011;9662;53.612;9.914;2022-10-14T02:10:16;30.87;;;15.70;;
19057;SDS011;9662;53.612;9.914;2022-10-14T02:12:52;25.67;;;14.57;;
19057;SDS011;9662;53.612;9.914;2022-10-14T02:15:31;31.75;;;16.48;;
19057;SDS011;9662;53.612;9.914;2022-10-14T02:18:08;29.70;;;16.73;;
19057;SDS011;9662;53.612;9.914;2022-10-14T02:20:43;31.05;;;16.27;;
19057;SDS011;9662;53.612;9.914;2022-10-14T02:23:15;31.15;;;16.52;;
19057;SDS011;9662;53.612;9.914;2022-10-14T02:25:45;37.28;;;17.92;;
19057;SDS011;9662;53.612;9.914;2022-10-14T02:28:16;30.95;;;16.98;;
19057;SDS011;9662;53.612;9.914;2022-10-14T02:30:46;34.20;;;16.85;;
19057;SDS011;9662;53.612;9.914;2022-10-14T02:33:18;31.40;;;16.25;;
19057;SDS011;9662;53.612;9.914;2022-10-14T02:35:48;30.10;;;16.08;;
19057;SDS011;9662;53.612;9.914;2022-10-14T02:38:16;33.72;;;17.77;;
19057;SDS011;9662;53.612;9.914;2022-10-14T02:40:45;28.00;;;15.82;;
19057;SDS011;9662;53.612;9.914;2022-10-14T02:43:14;29.73;;;16.85;;
19057;SDS011;9662;53.612;9.914;2022-10-14T02:45:41;31.40;;;16.88;;
19057;SDS011;9662;53.612;9.914;2022-10-14T02:48:11;31.53;;;16.60;;
19057;SDS011;9662;53.612;9.914;2022-10-14T02:50:38;32.33;;;17.23;;
19057;SDS011;9662;53.612;9.914;2022-10-14T02:53:06;30.85;;;15.88;;
19057;SDS011;9662;53.612;9.914;2022-10-14T02:55:32;38.00;;;18.42;;
19057;SDS011;9662;53.612;9.914;2022-10-14T02:57:59;41.25;;;18.63;;
19057;SDS011;9662;53.612;9.914;2022-10-14T03:00:26;33.35;;;17.65;;
19057;SDS011;9662;53.612;9.914;2022-10-14T03:02:52;33.08;;;17.42;;
19057;SDS011;9662;53.612;9.914;2022-10-14T03:05:21;37.35;;;17.83;;
19057;SDS011;9662;53.612;9.914;2022-10-14T03:07:47;34.97;;;17.38;;
19057;SDS011;9662;53.612;9.914;2022-10-14T03:10:14;33.83;;;17.40;;
19057;SDS011;9662;53.612;9.914;2022-10-14T03:12:41;39.72;;;18.08;;
19057;SDS011;9662;53.612;9.914;2022-10-14T03:15:08;30.40;;;16.60;;
19057;SDS011;9662;53.612;9.914;2022-10-14T03:17:36;34.47;;;18.25;;
19057;SDS011;9662;53.612;9.914;2022-10-14T03:20:03;34.38;;;17.92;;
19057;SDS011;9662;53.612;9.914;2022-10-14T03:22:31;37.77;;;16.93;;
19057;SDS011;9662;53.612;9.914;2022-10-14T03:24:58;33.63;;;16.97;;
19057;SDS011;9662;53.612;9.914;2022-10-14T03:27:25;28.40;;;16.35;;
19057;SDS011;9662;53.612;9.914;2022-10-14T03:29:52;33.77;;;17.07;;
19057;SDS011;9662;53.612;9.914;2022-10-14T03:32:18;33.38;;;17.10;;
19057;SDS011;9662;53.612;9.914;2022-10-14T03:34:45;34.85;;;17.38;;
19057;SDS011;9662;53.612;9.914;2022-10-14T03:37:12;39.63;;;17.45;;
19057;SDS011;9662;53.612;9.914;2022-10-14T03:39:40;37.87;;;19.37;;
19057;SDS011;9662;53.612;9.914;2022-10-14T03:42:06;32.65;;;17.73;;
19057;SDS011;9662;53.612;9.914;2022-10-14T03:44:33;36.15;;;17.27;;
19057;SDS011;9662;53.612;9.914;2022-10-14T03:47:00;37.63;;;17.35;;
19057;SDS011;9662;53.612;9.914;2022-10-14T03:49:26;36.55;;;17.50;;
19057;SDS011;9662;53.612;9.914;2022-10-14T03:51:53;36.55;;;17.25;;
19057;SDS011;9662;53.612;9.914;2022-10-14T03:54:20;33.53;;;16.27;;
19057;SDS011;9662;53.612;9.914;2022-10-14T03:56:48;33.83;;;16.85;;
19057;SDS011;9662;53.612;9.914;2022-10-14T03:59:15;32.67;;;17.23;;
19057;SDS011;9662;53.612;9.914;2022-10-14T04:01:42;32.42;;;16.85;;
19057;SDS011;9662;53.612;9.914;2022-10-14T04:04:08;29.98;;;16.40;;
19057;SDS011;9662;53.612;9.914;2022-10-14T04:06:35;31.33;;;15.85;;
19057;SDS011;9662;53.612;9.914;2022-10-14T04:09:02;27.50;;;15.13;;
19057;SDS011;9662;53.612;9.914;2022-10-14T04:11:29;31.03;;;15.93;;
19057;SDS011;9662;53.612;9.914;2022-10-14T04:13:57;32.90;;;16.50;;
19057;SDS011;9662;53.612;9.914;2022-10-14T04:16:24;29.52;;;15.52;;
19057;SDS011;9662;53.612;9.914;2022-10-14T04:18:51;33.72;;;16.70;;
19057;SDS011;9662;53.612;9.914;2022-10-14T04:21:18;34.28;;;17.08;;
19057;SDS011;9662;53.612;9.914;2022-10-14T04:23:45;36.40;;;15.88;;
19057;SDS011;9662;53.612;9.914;2022-10-14T04:26:12;33.67;;;17.30;;
19057;SDS011;9662;53.612;9.914;2022-10-14T04:28:39;33.72;;;16.75;;
19057;SDS011;9662;53.612;9.914;2022-10-14T04:31:07;37.03;;;17.48;;
19057;SDS011;9662;53.612;9.914;2022-10-14T04:33:34;33.78;;;16.40;;
19057;SDS011;9662;53.612;9.914;2022-10-14T04:36:02;32.53;;;16.77;;
19057;SDS011;9662;53.612;9.914;2022-10-14T04:38:30;38.17;;;17.42;;
19057;SDS011;9662;53.612;9.914;2022-10-14T04:40:57;37.25;;;16.98;;
19057;SDS011;9662;53.612;9.914;2022-10-14T04:43:24;33.08;;;16.27;;
19057;SDS011;9662;53.612;9.914;2022-10-14T04:45:51;39.80;;;17.93;;
19057;SDS011;9662;53.612;9.914;2022-10-14T04:48:19;36.08;;;17.45;;
19057;SDS011;9662;53.612;9.914;2022-10-14T04:50:48;38.80;;;17.70;;
19057;SDS011;9662;53.612;9.914;2022-10-14T04:53:15;35.92;;;17.35;;
19057;SDS011;9662;53.612;9.914;2022-10-14T04:55:42;33.77;;;16.87;;
19057;SDS011;9662;53.612;9.914;2022-10-14T04:58:09;43.60;;;18.53;;
19057;SDS011;9662;53.612;9.914;2022-10-14T05:00:36;39.33;;;17.73;;
19057;SDS011;9662;53.612;9.914;2022-10-14T05:03:03;40.72;;;17.75;;
19057;SDS011;9662;53.612;9.914;2022-10-14T05:05:31;42.53;;;17.27;;
19057;SDS011;9662;53.612;9.914;2022-10-14T05:07:58;43.85;;;17.85;;
19057;SDS011;9662;53.612;9.914;2022-10-14T05:10:24;35.15;;;18.45;;
19057;SDS011;9662;53.612;9.914;2022-10-14T05:12:51;42.60;;;18.45;;
19057;SDS011;9662;53.612;9.914;2022-10-14T05:15:18;43.00;;;18.42;;
19057;SDS011;9662;53.612;9.914;2022-10-14T05:17:45;46.58;;;19.13;;
19057;SDS011;9662;53.612;9.914;2022-10-14T05:20:12;45.03;;;17.58;;
19057;SDS011;9662;53.612;9.914;2022-10-14T05:22:41;40.00;;;18.38;;
19057;SDS011;9662;53.612;9.914;2022-10-14T05:25:09;42.38;;;19.15;;
19057;SDS011;9662;53.612;9.914;2022-10-14T05:27:36;44.70;;;17.85;;
19057;SDS011;9662;53.612;9.914;2022-10-14T05:30:03;42.80;;;18.45;;
19057;SDS011;9662;53.612;9.914;2022-10-14T05:32:30;42.10;;;18.17;;
19057;SDS011;9662;53.612;9.914;2022-10-14T05:34:56;35.17;;;17.08;;
19057;SDS011;9662;53.612;9.914;2022-10-14T05:37:23;42.80;;;17.27;;
19057;SDS011;9662;53.612;9.914;2022-10-14T05:39:51;40.85;;;17.92;;
19057;SDS011;9662;53.612;9.914;2022-10-14T05:42:19;39.78;;;17.95;;
19057;SDS011;9662;53.612;9.914;2022-10-14T05:44:45;35.97;;;17.48;;
19057;SDS011;9662;53.612;9.914;2022-10-14T05:47:12;39.10;;;17.60;;
19057;SDS011;9662;53.612;9.914;2022-10-14T05:49:39;40.38;;;16.98;;
19057;SDS011;9662;53.612;9.914;2022-10-14T05:52:05;36.97;;;17.77;;
19057;SDS011;9662;53.612;9.914;2022-10-14T05:54:32;36.22;;;17.88;;
19057;SDS011;9662;53.612;9.914;2022-10-14T05:57:00;50.45;;;20.67;;
19057;SDS011;9662;53.612;9.914;2022-10-14T05:59:27;47.72;;;19.10;;
19057;SDS011;9662;53.612;9.914;2022-10-14T06:01:54;50.92;;;21.10;;
19057;SDS011;9662;53.612;9.914;2022-10-14T06:04:21;53.45;;;20.73;;
19057;SDS011;9662;53.612;9.914;2022-10-14T06:06:48;53.40;;;21.98;;
19057;SDS011;9662;53.612;9.914;2022-10-14T06:09:15;59.47;;;20.88;;
19057;SDS011;9662;53.612;9.914;2022-10-14T06:11:42;49.13;;;20.83;;
19057;SDS011;9662;53.612;9.914;2022-10-14T06:14:10;47.38;;;20.63;;
19057;SDS011;9662;53.612;9.914;2022-10-14T06:16:36;50.50;;;21.42;;
19057;SDS011;9662;53.612;9.914;2022-10-14T06:19:03;46.20;;;20.42;;
19057;SDS011;9662;53.612;9.914;2022-10-14T06:21:30;55.90;;;21.45;;
19057;SDS011;9662;53.612;9.914;2022-10-14T06:23:57;52.00;;;21.67;;
19057;SDS011;9662;53.612;9.914;2022-10-14T06:26:23;58.72;;;21.92;;
19057;SDS011;9662;53.612;9.914;2022-10-14T06:28:50;52.58;;;22.17;;
19057;SDS011;9662;53.612;9.914;2022-10-14T06:31:18;59.70;;;22.98;;
19057;SDS011;9662;53.612;9.914;2022-10-14T06:33:45;53.83;;;22.10;;
19057;SDS011;9662;53.612;9.914;2022-10-14T06:36:12;54.90;;;21.88;;
19057;SDS011;9662;53.612;9.914;2022-10-14T06:38:38;52.88;;;22.73;;
19057;SDS011;9662;53.612;9.914;2022-10-14T06:41:05;50.47;;;22.48;;
19057;SDS011;9662;53.612;9.914;2022-10-14T06:43:32;52.28;;;21.65;;
19057;SDS011;9662;53.612;9.914;2022-10-14T06:45:59;56.22;;;22.02;;
19057;SDS011;9662;53.612;9.914;2022-10-14T06:48:28;49.55;;;22.52;;
19057;SDS011;9662;53.612;9.914;2022-10-14T06:50:56;53.10;;;22.88;;
19057;SDS011;9662;53.612;9.914;2022-10-14T06:53:23;60.20;;;24.23;;
19057;SDS011;9662;53.612;9.914;2022-10-14T06:55:55;55.40;;;22.73;;
19057;SDS011;9662;53.612;9.914;2022-10-14T06:58:23;52.05;;;22.25;;
19057;SDS011;9662;53.612;9.914;2022-10-14T07:00:50;51.13;;;22.73;;
19057;SDS011;9662;53.612;9.914;2022-10-14T07:03:17;52.53;;;23.47;;
19057;SDS011;9662;53.612;9.914;2022-10-14T07:05:45;53.08;;;22.60;;
19057;SDS011;9662;53.612;9.914;2022-10-14T07:08:12;59.27;;;23.67;;
19057;SDS011;9662;53.612;9.914;2022-10-14T07:10:38;54.85;;;23.50;;
19057;SDS011;9662;53.612;9.914;2022-10-14T07:13:05;59.10;;;23.15;;
19057;SDS011;9662;53.612;9.914;2022-10-14T07:15:32;53.90;;;23.70;;
19057;SDS011;9662;53.612;9.914;2022-10-14T07:17:58;55.50;;;23.10;;
19057;SDS011;9662;53.612;9.914;2022-10-14T07:20:25;51.72;;;22.95;;
19057;SDS011;9662;53.612;9.914;2022-10-14T07:22:54;55.40;;;23.60;;
19057;SDS011;9662;53.612;9.914;2022-10-14T07:25:21;50.60;;;21.70;;
19057;SDS011;9662;53.612;9.914;2022-10-14T07:27:49;53.65;;;24.25;;
19057;SDS011;9662;53.612;9.914;2022-10-14T07:30:17;55.20;;;24.75;;
19057;SDS011;9662;53.612;9.914;2022-10-14T07:32:43;49.33;;;23.37;;
19057;SDS011;9662;53.612;9.914;2022-10-14T07:35:10;53.35;;;23.30;;
19057;SDS011;9662;53.612;9.914;2022-10-14T07:37:37;53.30;;;23.67;;
19057;SDS011;9662;53.612;9.914;2022-10-14T07:40:05;50.92;;;22.65;;
19057;SDS011;9662;53.612;9.914;2022-10-14T07:42:33;52.73;;;21.57;;
19057;SDS011;9662;53.612;9.914;2022-10-14T07:45:00;49.88;;;23.05;;
19057;SDS011;9662;53.612;9.914;2022-10-14T07:47:27;59.53;;;24.85;;
19057;SDS011;9662;53.612;9.914;2022-10-14T07:49:53;57.47;;;23.67;;
19057;SDS011;9662;53.612;9.914;2022-10-14T07:52:20;48.67;;;23.52;;
19057;SDS011;9662;53.612;9.914;2022-10-14T07:54:47;55.40;;;23.60;;
19057;SDS011;9662;53.612;9.914;2022-10-14T07:57:15;53.10;;;23.45;;
19057;SDS011;9662;53.612;9.914;2022-10-14T07:59:42;50.47;;;22.05;;
19057;SDS011;9662;53.612;9.914;2022-10-14T08:02:09;54.40;;;24.20;;
19057;SDS011;9662;53.612;9.914;2022-10-14T08:04:36;56.15;;;24.50;;
19057;SDS011;9662;53.612;9.914;2022-10-14T08:07:03;56.38;;;23.80;;
19057;SDS011;9662;53.612;9.914;2022-10-14T08:09:30;53.55;;;23.33;;
19057;SDS011;9662;53.612;9.914;2022-10-14T08:11:59;59.33;;;25.33;;
19057;SDS011;9662;53.612;9.914;2022-10-14T08:14:27;47.90;;;22.38;;
19057;SDS011;9662;53.612;9.914;2022-10-14T08:16:54;52.17;;;22.55;;
19057;SDS011;9662;53.612;9.914;2022-10-14T08:19:21;52.60;;;23.58;;
19057;SDS011;9662;53.612;9.914;2022-10-14T08:21:47;51.63;;;24.27;;
19057;SDS011;9662;53.612;9.914;2022-10-14T08:24:14;52.45;;;22.17;;
19057;SDS011;9662;53.612;9.914;2022-10-14T08:26:47;49.38;;;23.60;;
19057;SDS011;9662;53.612;9.914;2022-10-14T08:29:15;49.00;;;22.35;;
19057;SDS011;9662;53.612;9.914;2022-10-14T08:31:44;42.00;;;21.33;;
19057;SDS011;9662;53.612;9.914;2022-10-14T08:34:11;51.60;;;23.77;;
19057;SDS011;9662;53.612;9.914;2022-10-14T08:36:37;45.10;;;21.42;;
19057;SDS011;9662;53.612;9.914;2022-10-14T08:39:04;57.83;;;23.02;;
19057;SDS011;9662;53.612;9.914;2022-10-14T08:41:38;47.67;;;23.42;;
19057;SDS011;9662;53.612;9.914;2022-10-14T08:44:27;45.35;;;21.45;;
19057;SDS011;9662;53.612;9.914;2022-10-14T08:47:06;49.00;;;22.85;;
19057;SDS011;9662;53.612;9.914;2022-10-14T08:49:40;44.70;;;21.90;;
19057;SDS011;9662;53.612;9.914;2022-10-14T08:52:16;40.10;;;21.27;;
19057;SDS011;9662;53.612;9.914;2022-10-14T08:54:47;42.00;;;21.13;;
19057;SDS011;9662;53.612;9.914;2022-10-14T08:57:16;43.28;;;20.88;;
19057;SDS011;9662;53.612;9.914;2022-10-14T08:59:45;40.78;;;20.73;;
19057;SDS011;9662;53.612;9.914;2022-10-14T09:02:17;38.45;;;20.45;;
19057;SDS011;9662;53.612;9.914;2022-10-14T09:04:49;44.03;;;20.92;;
19057;SDS011;9662;53.612;9.914;2022-10-14T09:07:16;37.80;;;19.80;;
19057;SDS011;9662;53.612;9.914;2022-10-14T09:09:45;44.23;;;21.30;;
19057;SDS011;9662;53.612;9.914;2022-10-14T09:12:15;37.20;;;19.63;;
19057;SDS011;9662;53.612;9.914;2022-10-14T09:14:47;35.67;;;19.73;;
19057;SDS011;9662;53.612;9.914;2022-10-14T09:17:21;40.90;;;20.67;;
19057;SDS011;9662;53.612;9.914;2022-10-14T09:19:53;41.88;;;19.90;;
19057;SDS011;9662;53.612;9.914;2022-10-14T09:22:29;40.78;;;19.15;;
19057;SDS011;9662;53.612;9.914;2022-10-14T09:24:56;45.47;;;20.13;;
19057;SDS011;9662;53.612;9.914;2022-10-14T09:27:23;37.33;;;18.80;;
19057;SDS011;9662;53.612;9.914;2022-10-14T09:29:50;35.25;;;18.50;;
19057;SDS011;9662;53.612;9.914;2022-10-14T09:32:25;40.00;;;19.65;;
19057;SDS011;9662;53.612;9.914;2022-10-14T09:34:55;37.93;;;19.10;;
19057;SDS011;9662;53.612;9.914;2022-10-14T09:37:24;35.55;;;19.50;;
19057;SDS011;9662;53.612;9.914;2022-10-14T09:39:53;38.00;;;19.65;;
19057;SDS011;9662;53.612;9.914;2022-10-14T09:42:25;40.60;;;18.57;;
19057;SDS011;9662;53.612;9.914;2022-10-14T09:45:06;36.97;;;17.70;;
19057;SDS011;9662;53.612;9.914;2022-10-14T09:47:40;35.42;;;16.73;;
19057;SDS011;9662;53.612;9.914;2022-10-14T09:50:21;31.17;;;16.05;;
19057;SDS011;9662;53.612;9.914;2022-10-14T09:52:51;30.42;;;16.35;;
19057;SDS011;9662;53.612;9.914;2022-10-14T09:55:20;35.05;;;17.77;;
19057;SDS011;9662;53.612;9.914;2022-10-14T09:57:54;35.20;;;16.77;;
19057;SDS011;9662;53.612;9.914;2022-10-14T10:00:30;31.75;;;16.65;;
19057;SDS011;9662;53.612;9.914;2022-10-14T10:03:01;30.85;;;16.30;;
19057;SDS011;9662;53.612;9.914;2022-10-14T10:05:28;32.35;;;15.88;;
19057;SDS011;9662;53.612;9.914;2022-10-14T10:08:00;30.38;;;15.90;;
19057;SDS011;9662;53.612;9.914;2022-10-14T10:10:30;32.35;;;16.02;;
19057;SDS011;9662;53.612;9.914;2022-10-14T10:12:59;30.27;;;16.23;;
19057;SDS011;9662;53.612;9.914;2022-10-14T10:15:26;28.15;;;15.02;;
19057;SDS011;9662;53.612;9.914;2022-10-14T10:17:53;31.52;;;15.90;;
19057;SDS011;9662;53.612;9.914;2022-10-14T10:20:22;28.97;;;16.07;;
19057;SDS011;9662;53.612;9.914;2022-10-14T10:22:57;23.17;;;12.85;;
19057;SDS011;9662;53.612;9.914;2022-10-14T10:25:41;21.83;;;13.50;;
19057;SDS011;9662;53.612;9.914;2022-10-14T10:28:14;24.35;;;13.93;;
19057;SDS011;9662;53.612;9.914;2022-10-14T10:30:43;24.90;;;13.88;;
19057;SDS011;9662;53.612;9.914;2022-10-14T10:33:25;23.90;;;13.77;;
19057;SDS011;9662;53.612;9.914;2022-10-14T10:36:08;24.33;;;14.02;;
19057;SDS011;9662;53.612;9.914;2022-10-14T10:38:44;25.60;;;14.82;;
19057;SDS011;9662;53.612;9.914;2022-10-14T10:41:21;25.05;;;14.52;;
19057;SDS011;9662;53.612;9.914;2022-10-14T10:44:10;26.73;;;15.17;;
19057;SDS011;9662;53.612;9.914;2022-10-14T10:46:56;26.98;;;14.85;;
19057;SDS011;9662;53.612;9.914;2022-10-14T10:49:37;28.40;;;15.60;;
19057;SDS011;9662;53.612;9.914;2022-10-14T10:52:33;25.00;;;14.23;;
19057;SDS011;9662;53.612;9.914;2022-10-14T10:55:11;31.43;;;15.07;;
19057;SDS011;9662;53.612;9.914;2022-10-14T10:57:45;25.55;;;14.63;;
19057;SDS011;9662;53.612;9.914;2022-10-14T11:00:19;26.77;;;15.05;;
19057;SDS011;9662;53.612;9.914;2022-10-14T11:02:56;27.45;;;16.30;;
19057;SDS011;9662;53.612;9.914;2022-10-14T11:08:15;27.95;;;14.93;;
19057;SDS011;9662;53.612;9.914;2022-10-14T11:11:13;29.60;;;14.65;;
19057;SDS011;9662;53.612;9.914;2022-10-14T11:14:06;25.90;;;14.80;;
19057;SDS011;9662;53.612;9.914;2022-10-14T11:16:42;25.73;;;14.77;;
19057;SDS011;9662;53.612;9.914;2022-10-14T11:19:17;25.45;;;14.73;;
19057;SDS011;9662;53.612;9.914;2022-10-14T11:21:52;25.38;;;14.15;;
19057;SDS011;9662;53.612;9.914;2022-10-14T11:24:26;37.00;;;14.30;;
19057;SDS011;9662;53.612;9.914;2022-10-14T11:27:03;24.63;;;13.98;;
19057;SDS011;9662;53.612;9.914;2022-10-14T11:29:43;22.10;;;13.40;;
19057;SDS011;9662;53.612;9.914;2022-10-14T11:32:22;28.08;;;14.23;;
19057;SDS011;9662;53.612;9.914;2022-10-14T11:34:57;22.48;;;13.80;;
19057;SDS011;9662;53.612;9.914;2022-10-14T11:37:56;25.88;;;14.45;;
19057;SDS011;9662;53.612;9.914;2022-10-14T11:40:33;26.10;;;13.90;;
19057;SDS011;9662;53.612;9.914;2022-10-14T11:43:08;28.27;;;14.20;;
19057;SDS011;9662;53.612;9.914;2022-10-14T11:45:45;20.58;;;13.15;;
19057;SDS011;9662;53.612;9.914;2022-10-14T11:48:27;23.00;;;13.07;;
19057;SDS011;9662;53.612;9.914;2022-10-14T11:50:59;22.87;;;13.27;;
19057;SDS011;9662;53.612;9.914;2022-10-14T11:53:37;22.30;;;13.43;;
19057;SDS011;9662;53.612;9.914;2022-10-14T11:56:16;22.65;;;12.82;;
19057;SDS011;9662;53.612;9.914;2022-10-14T11:58:53;23.85;;;13.68;;
19057;SDS011;9662;53.612;9.914;2022-10-14T12:01:25;22.63;;;13.15;;
19057;SDS011;9662;53.612;9.914;2022-10-14T12:03:54;24.25;;;13.93;;
19057;SDS011;9662;53.612;9.914;2022-10-14T12:06:28;23.30;;;12.95;;
19057;SDS011;9662;53.612;9.914;2022-10-14T12:09:00;21.60;;;12.98;;
19057;SDS011;9662;53.612;9.914;2022-10-14T12:11:33;20.38;;;12.35;;
19057;SDS011;9662;53.612;9.914;2022-10-14T12:14:05;21.55;;;12.07;;
19057;SDS011;9662;53.612;9.914;2022-10-14T12:16:36;17.90;;;11.98;;
19057;SDS011;9662;53.612;9.914;2022-10-14T12:19:06;26.30;;;13.10;;
19057;SDS011;9662;53.612;9.914;2022-10-14T12:21:37;21.70;;;12.70;;
19057;SDS011;9662;53.612;9.914;2022-10-14T12:24:11;20.58;;;12.68;;
19057;SDS011;9662;53.612;9.914;2022-10-14T12:26:44;20.67;;;12.80;;
19057;SDS011;9662;53.612;9.914;2022-10-14T12:29:17;22.33;;;12.70;;
19057;SDS011;9662;53.612;9.914;2022-10-14T12:31:47;17.90;;;12.70;;
19057;SDS011;9662;53.612;9.914;2022-10-14T12:34:23;21.75;;;12.38;;
19057;SDS011;9662;53.612;9.914;2022-10-14T12:36:55;17.17;;;11.55;;
19057;SDS011;9662;53.612;9.914;2022-10-14T12:39:28;20.98;;;11.98;;
19057;SDS011;9662;53.612;9.914;2022-10-14T12:41:59;15.90;;;10.87;;
19057;SDS011;9662;53.612;9.914;2022-10-14T12:44:30;20.80;;;11.48;;
19057;SDS011;9662;53.612;9.914;2022-10-14T12:47:00;14.63;;;10.47;;
19057;SDS011;9662;53.612;9.914;2022-10-14T12:49:30;13.23;;;10.13;;
19057;SDS011;9662;53.612;9.914;2022-10-14T12:52:01;15.60;;;9.70;;
19057;SDS011;9662;53.612;9.914;2022-10-14T12:54:31;14.38;;;9.80;;
19057;SDS011;9662;53.612;9.914;2022-10-14T12:57:01;13.60;;;9.23;;
19057;SDS011;9662;53.612;9.914;2022-10-14T12:59:31;15.17;;;10.00;;
19057;SDS011;9662;53.612;9.914;2022-10-14T13:02:00;14.52;;;9.52;;
19057;SDS011;9662;53.612;9.914;2022-10-14T13:04:30;11.50;;;8.80;;
19057;SDS011;9662;53.612;9.914;2022-10-14T13:07:26;15.82;;;9.55;;
19057;SDS011;9662;53.612;9.914;2022-10-14T13:19:42;13.50;;;9.05;;
19057;SDS011;9662;53.612;9.914;2022-10-14T13:25:14;14.17;;;9.20;;
19057;SDS011;9662;53.612;9.914;2022-10-14T13:30:49;13.82;;;8.57;;
19057;SDS011;9662;53.612;9.914;2022-10-14T13:33:25;12.65;;;8.15;;
19057;SDS011;9662;53.612;9.914;2022-10-14T13:36:01;13.05;;;8.63;;
19057;SDS011;9662;53.612;9.914;2022-10-14T13:38:37;11.70;;;8.93;;
19057;SDS011;9662;53.612;9.914;2022-10-14T13:41:09;9.85;;;7.80;;
19057;SDS011;9662;53.612;9.914;2022-10-14T13:43:42;15.00;;;9.02;;
19057;SDS011;9662;53.612;9.914;2022-10-14T13:46:12;10.63;;;8.48;;
19057;SDS011;9662;53.612;9.914;2022-10-14T13:48:42;13.90;;;8.93;;
19057;SDS011;9662;53.612;9.914;2022-10-14T13:51:22;9.10;;;7.85;;
19057;SDS011;9662;53.612;9.914;2022-10-14T13:53:52;10.93;;;7.88;;
19057;SDS011;9662;53.612;9.914;2022-10-14T13:56:21;10.70;;;8.82;;
19057;SDS011;9662;53.612;9.914;2022-10-14T13:58:49;11.73;;;8.43;;
19057;SDS011;9662;53.612;9.914;2022-10-14T14:01:18;9.18;;;8.07;;
19057;SDS011;9662;53.612;9.914;2022-10-14T14:03:49;12.40;;;8.48;;
19057;SDS011;9662;53.612;9.914;2022-10-14T14:06:19;11.20;;;8.13;;
19057;SDS011;9662;53.612;9.914;2022-10-14T14:08:48;11.07;;;8.18;;
19057;SDS011;9662;53.612;9.914;2022-10-14T14:11:18;9.02;;;7.80;;
19057;SDS011;9662;53.612;9.914;2022-10-14T14:13:53;15.50;;;8.30;;
19057;SDS011;9662;53.612;9.914;2022-10-14T14:16:25;10.73;;;8.30;;
19057;SDS011;9662;53.612;9.914;2022-10-14T14:18:55;10.32;;;7.72;;
19057;SDS011;9662;53.612;9.914;2022-10-14T14:21:23;11.35;;;8.90;;
19057;SDS011;9662;53.612;9.914;2022-10-14T14:23:52;10.07;;;8.45;;
19057;SDS011;9662;53.612;9.914;2022-10-14T14:26:20;10.77;;;8.88;;
19057;SDS011;9662;53.612;9.914;2022-10-14T14:28:52;12.80;;;8.02;;
19057;SDS011;9662;53.612;9.914;2022-10-14T14:31:20;9.70;;;8.48;;
19057;SDS011;9662;53.612;9.914;2022-10-14T14:33:50;15.10;;;7.73;;
19057;SDS011;9662;53.612;9.914;2022-10-14T14:36:21;10.55;;;7.97;;
19057;SDS011;9662;53.612;9.914;2022-10-14T14:38:51;12.40;;;8.40;;
19057;SDS011;9662;53.612;9.914;2022-10-14T14:41:20;12.77;;;7.72;;
19057;SDS011;9662;53.612;9.914;2022-10-14T14:43:49;8.80;;;7.38;;
19057;SDS011;9662;53.612;9.914;2022-10-14T14:46:17;7.53;;;6.90;;
19057;SDS011;9662;53.612;9.914;2022-10-14T14:48:47;12.07;;;7.50;;
19057;SDS011;9662;53.612;9.914;2022-10-14T14:51:19;8.13;;;7.28;;
19057;SDS011;9662;53.612;9.914;2022-10-14T14:53:48;8.90;;;7.60;;
19057;SDS011;9662;53.612;9.914;2022-10-14T14:56:18;10.18;;;7.97;;
19057;SDS011;9662;53.612;9.914;2022-10-14T14:58:50;8.65;;;7.35;;
19057;SDS011;9662;53.612;9.914;2022-10-14T15:01:19;8.05;;;7.28;;
19057;SDS011;9662;53.612;9.914;2022-10-14T15:03:50;7.75;;;6.95;;
19057;SDS011;9662;53.612;9.914;2022-10-14T15:06:21;8.00;;;7.15;;
19057;SDS011;9662;53.612;9.914;2022-10-14T15:08:49;8.05;;;7.25;;
19057;SDS011;9662;53.612;9.914;2022-10-14T15:11:18;7.50;;;6.75;;
19057;SDS011;9662;53.612;9.914;2022-10-14T15:13:47;7.78;;;7.00;;
19057;SDS011;9662;53.612;9.914;2022-10-14T15:16:35;7.57;;;6.82;;
19057;SDS011;9662;53.612;9.914;2022-10-14T15:19:20;7.60;;;6.90;;
19057;SDS011;9662;53.612;9.914;2022-10-14T15:22:19;8.43;;;6.70;;